• Join FlightAware (Why Join?)
  • Login
  • US Flag 
03:48AM EDT


 

Airport Tracker/Info


-or-


 

Live Flight TrackerFlight Track Log ✈ CSC8515 ✈ 14-Jul-2014 ✈ ZUCK / CKG - ZBAA / PEK

Flight Track Log - Related Links

Times and Time Zones

All times are in EDT time to prevent confusion due to time zone crossing. See the CSC8515 flight status page for this flight to view local times or setup timezone preferences in your user account.

Time Position Orientation Groundspeed Altitude Reporting Facility
EDT Latitude Longitude Course Direction KTS MPH feet Rate Location/Type
06:28AM 30.2962 107.1174 35° Northeast  Level Estimated
06:29AM 30.3785 107.1860 36° Northeast  Level Estimated
06:30AM 30.4607 107.2546 36° Northeast  Level Estimated
06:31AM 30.5429 107.3233 36° Northeast  Level Estimated
06:32AM 30.6251 107.3922 36° Northeast  Level Estimated
06:33AM 30.7072 107.4612 36° Northeast  Level Estimated
06:34AM 30.7893 107.5303 36° Northeast  Level Estimated
06:35AM 30.8713 107.5995 36° Northeast  Level Estimated
06:36AM 30.9533 107.6689 36° Northeast  Level Estimated
06:37AM 31.0353 107.7383 36° Northeast  Level Estimated
06:38AM 31.1173 107.8079 36° Northeast  Level Estimated
06:39AM 31.1992 107.8776 36° Northeast  Level Estimated
06:40AM 31.2810 107.9474 36° Northeast  Level Estimated
06:41AM 31.3628 108.0173 36° Northeast  Level Estimated
06:42AM 31.4446 108.0874 36° Northeast  Level Estimated
06:43AM 31.5264 108.1576 36° Northeast  Level Estimated
06:44AM 31.6081 108.2279 36° Northeast  Level Estimated
06:45AM 31.6898 108.2983 36° Northeast  Level Estimated
06:46AM 31.7714 108.3689 36° Northeast  Level Estimated
06:47AM 31.8530 108.4396 36° Northeast  Level Estimated
06:48AM 31.9345 108.5104 36° Northeast  Level Estimated
06:49AM 32.0160 108.5813 36° Northeast  Level Estimated
06:50AM 32.0975 108.6523 36° Northeast  Level Estimated
06:51AM 32.1790 108.7235 36° Northeast  Level Estimated
06:52AM 32.2603 108.7948 37° Northeast  Level Estimated
06:53AM 32.3417 108.8663 37° Northeast  Level Estimated
06:54AM 32.4230 108.9378 37° Northeast  Level Estimated
06:55AM 32.5043 109.0095 37° Northeast  Level Estimated
06:56AM 32.5855 109.0813 37° Northeast  Level Estimated
06:57AM 32.6667 109.1533 37° Northeast  Level Estimated
06:58AM 32.7479 109.2254 37° Northeast  Level Estimated
06:59AM 32.8290 109.2976 37° Northeast  Level Estimated
07:00AM 32.9101 109.3699 37° Northeast  Level Estimated
07:01AM 32.9911 109.4424 37° Northeast  Level Estimated
07:02AM 33.0721 109.5150 37° Northeast  Level Estimated
07:03AM 33.1530 109.5878 37° Northeast  Level Estimated
07:04AM 33.2339 109.6607 37° Northeast  Level Estimated
07:05AM 33.3148 109.7337 37° Northeast  Level Estimated
07:06AM 33.3956 109.8068 37° Northeast  Level Estimated
07:07AM 33.4764 109.8801 37° Northeast  Level Estimated
07:08AM 33.5571 109.9536 37° Northeast  Level Estimated
07:09AM 33.6378 110.0271 37° Northeast  Level Estimated
07:10AM 33.7184 110.1008 37° Northeast  Level Estimated
07:11AM 33.7990 110.1747 37° Northeast  Level Estimated
07:12AM 33.8796 110.2486 37° Northeast  Level Estimated
07:13AM 33.9601 110.3228 37° Northeast  Level Estimated
07:14AM 34.0406 110.3970 37° Northeast  Level Estimated
07:15AM 34.1210 110.4714 37° Northeast  Level Estimated
07:16AM 34.2013 110.5460 37° Northeast  Level Estimated
07:17AM 34.2817 110.6206 38° Northeast  Level Estimated
07:18AM 34.3620 110.6955 38° Northeast  Level Estimated
07:19AM 34.4422 110.7704 38° Northeast  Level Estimated
07:20AM 34.5224 110.8456 38° Northeast  Level Estimated
07:21AM 34.6025 110.9208 38° Northeast  Level Estimated
07:22AM 34.6826 110.9962 38° Northeast  Level Estimated
07:23AM 34.7627 111.0718 38° Northeast  Level Estimated
07:24AM 34.8427 111.1475 38° Northeast  Level Estimated
07:25AM 34.9227 111.2233 38° Northeast  Level Estimated
07:26AM 35.0026 111.2993 38° Northeast  Level Estimated
07:27AM 35.0825 111.3754 38° Northeast  Level Estimated
07:28AM 35.1623 111.4517 38° Northeast  Level Estimated
07:29AM 35.2420 111.5282 38° Northeast  Level Estimated
07:30AM 35.3218 111.6048 38° Northeast  Level Estimated
07:31AM 35.4014 111.6815 38° Northeast  Level Estimated
07:32AM 35.4811 111.7584 38° Northeast  Level Estimated
07:33AM 35.5606 111.8354 38° Northeast  Level Estimated
07:34AM 35.6402 111.9126 38° Northeast  Level Estimated
07:35AM 35.7196 111.9900 38° Northeast  Level Estimated
07:36AM 35.7991 112.0675 38° Northeast  Level Estimated
07:37AM 35.8784 112.1452 38° Northeast  Level Estimated
07:38AM 35.9578 112.2230 38° Northeast  Level Estimated
07:39AM 36.0371 112.3009 38° Northeast  Level Estimated
07:40AM 36.1163 112.3791 39° Northeast  Level Estimated
07:41AM 36.1955 112.4574 39° Northeast  Level Estimated
07:42AM 36.2746 112.5358 39° Northeast  Level Estimated
07:43AM 36.3537 112.6144 39° Northeast  Level Estimated
07:44AM 36.4327 112.6932 39° Northeast  Level Estimated
07:45AM 36.5117 112.7721 39° Northeast  Level Estimated
07:46AM 36.5906 112.8512 39° Northeast  Level Estimated
07:47AM 36.6694 112.9305 39° Northeast  Level Estimated
07:48AM 36.7483 113.0099 39° Northeast  Level Estimated
07:49AM 36.8270 113.0894 39° Northeast  Level Estimated
07:50AM 36.9057 113.1692 39° Northeast  Level Estimated
07:51AM 36.9844 113.2491 39° Northeast  Level Estimated
07:52AM 37.0630 113.3291 39° Northeast  Level Estimated
07:53AM 37.1415 113.4094 39° Northeast  Level Estimated
07:54AM 37.2200 113.4898 39° Northeast  Level Estimated
07:55AM 37.2985 113.5704 39° Northeast  Level Estimated
07:56AM 37.3769 113.6511 39° Northeast  Level Estimated
07:57AM 37.4552 113.7320 39° Northeast  Level Estimated
07:58AM 37.5335 113.8131 39° Northeast  Level Estimated
07:59AM 37.6117 113.8943 39° Northeast  Level Estimated
07:59AM 38.5080 115.4548 49° Northeast 405 466 15,100  Level FlightAware ADS-B (ZBTJ / TSN)
08:00AM 37.6898 113.9758 39° Northeast  Level Estimated
08:00AM 38.5355 115.4963 50° Northeast 404 465 14,800  Level FlightAware ADS-B (ZBTJ / TSN)
08:01AM 38.6056 115.6029 49° Northeast 405 466 14,800  Level FlightAware ADS-B (ZBTJ / TSN)
08:01AM 38.6403 115.6555 50° Northeast 406 467 14,800  Level FlightAware ADS-B (ZBTJ / TSN)
08:02AM 38.6639 115.6917 50° Northeast 406 467 14,800  Level FlightAware ADS-B (ZBTJ / TSN)
08:02AM 38.7129 115.7663 50° Northeast 405 466 14,800  Level FlightAware ADS-B (ZBTJ / TSN)
08:03AM 38.7444 115.8145 50° Northeast 406 467 14,800  Level FlightAware ADS-B (ZBTJ / TSN)
08:03AM 38.7869 115.8795 50° Northeast 405 466 14,800  Level FlightAware ADS-B (ZBTJ / TSN)
08:04AM 38.8228 115.9346 50° Northeast 403 464 14,800  Level FlightAware ADS-B (ZBTJ / TSN)
08:04AM 38.8588 115.9898 50° Northeast 403 464 14,800  Level FlightAware ADS-B (ZBTJ / TSN)
08:05AM 38.8950 116.0455 50° Northeast 406 467 14,800  Level FlightAware ADS-B (ZBTJ / TSN)
08:05AM 38.9307 116.1006 50° Northeast 407 468 14,800  Level FlightAware ADS-B (ZBTJ / TSN)
08:06AM 38.9660 116.1550 50° Northeast 406 467 14,800  Level FlightAware ADS-B (ZBTJ / TSN)
08:06AM 39.0029 116.2124 50° Northeast 409 471 14,800  Level FlightAware ADS-B (ZBTJ / TSN)
08:07AM 39.0399 116.2697 50° Northeast 409 471 14,800  Level FlightAware ADS-B (ZBTJ / TSN)
08:07AM 39.0765 116.3263 50° Northeast 412 474 14,800  Level FlightAware ADS-B (ZBTJ / TSN)
08:08AM 39.1220 116.3878 34° Northeast 412 474 14,800  Level FlightAware ADS-B (ZBTJ / TSN)
08:08AM 39.1363 116.3977 23° Northeast 411 473 14,800 -300 Level FlightAware ADS-B (ZBTJ / TSN)
08:08AM 39.1574 116.4054 North 405 466 14,700 -1,200 Descending FlightAware ADS-B (ZBTJ / TSN)
08:09AM 39.2123 116.4092 North 384 442 14,000 -1,260 Descending FlightAware ADS-B (ZBTJ / TSN)
08:09AM 39.2639 116.4123 North 359 413 13,500 -900 Descending FlightAware ADS-B (ZBTJ / TSN)
08:10AM 39.3117 116.4152 North 336 387 13,100 -720 Descending FlightAware ADS-B (ZBTJ / TSN)
08:10AM 39.3539 116.4177 North 314 361 12,800 -1,020 Descending FlightAware ADS-B (ZBTJ / TSN)
08:11AM 39.3991 116.4205 North 300 345 12,100 -1,800 Descending FlightAware ADS-B (ZBTJ / TSN)
08:11AM 39.4402 116.4230 North 298 343 11,000 -2,100 Descending FlightAware ADS-B (ZBTJ / TSN)
08:12AM 39.4801 116.4343 29° Northeast 296 341 10,000 -2,100 Descending FlightAware ADS-B (ZBTJ / TSN)
08:12AM 39.4862 116.4403 34° Northeast 296 341 9,800 -2,220 Descending FlightAware ADS-B (ZBTJ / TSN)
08:12AM 39.4911 116.4458 41° Northeast 295 339 9,600 -2,220 Descending FlightAware ADS-B (ZBTJ / TSN)
08:12AM 39.5059 116.4638 43° Northeast 295 339 9,100 -1,680 Descending FlightAware ADS-B (ZBTJ / TSN)
08:12AM 39.5209 116.4825 43° Northeast 295 339 8,800 -1,200 Descending FlightAware ADS-B (ZBTJ / TSN)
08:13AM 39.5297 116.4923 38° Northeast 281 323 8,600 -780 Descending FlightAware ADS-B (ZBTJ / TSN)
08:13AM 39.5365 116.4980 31° Northeast 276 318 8,600 -660 Level FlightAware ADS-B (ZBTJ / TSN)
08:13AM 39.5527 116.5081 23° Northeast 268 308 8,400 -720 Descending FlightAware ADS-B (ZBTJ / TSN)
08:13AM 39.5754 116.5208 23° Northeast 253 291 8,200 -360 Descending FlightAware ADS-B (ZBTJ / TSN)
08:13AM 39.5912 116.5296 23° Northeast 241 277 8,200 -360 Level FlightAware ADS-B (ZBTJ / TSN)
08:14AM 39.6114 116.5409 23° Northeast 234 269 8,000 -720 Descending FlightAware ADS-B (ZBTJ / TSN)
08:14AM 39.6258 116.5491 23° Northeast 234 269 7,800 -780 Descending FlightAware ADS-B (ZBTJ / TSN)
08:14AM 39.6406 116.5576 23° Northeast 234 269 7,600 -1,020 Descending FlightAware ADS-B (ZBTJ / TSN)
08:15AM 39.6548 116.5658 24° Northeast 225 259 7,300 -1,080 Descending FlightAware ADS-B (ZBTJ / TSN)
08:15AM 39.6684 116.5737 24° Northeast 224 258 7,100 -1,080 Descending FlightAware ADS-B (ZBTJ / TSN)
08:15AM 39.6832 116.5824 24° Northeast 224 258 6,800 -1,020 Descending FlightAware ADS-B (ZBTJ / TSN)
08:15AM 39.6977 116.5909 24° Northeast 223 257 6,600 -840 Descending FlightAware ADS-B (ZBTJ / TSN)
08:16AM 39.7110 116.5986 24° Northeast 221 254 6,400 -840 Descending FlightAware ADS-B (ZBTJ / TSN)
08:16AM 39.7251 116.6068 23° Northeast 219 252 6,200 -1,020 Descending FlightAware ADS-B (ZBTJ / TSN)
08:16AM 39.7396 116.6151 23° Northeast 219 252 5,900 -1,080 Descending FlightAware ADS-B (ZBTJ / TSN)
08:16AM 39.7537 116.6230 23° Northeast 219 252 5,700 -1,020 Descending FlightAware ADS-B (ZBTJ / TSN)
08:17AM 39.7667 116.6306 23° Northeast 218 251 5,400 -900 Descending FlightAware ADS-B (ZBTJ / TSN)
08:17AM 39.7852 116.6385 North 217 250 5,200 -540 Descending FlightAware ADS-B (ZBTJ / TSN)
08:17AM 39.8009 116.6387 North 217 250 5,100 -600 Descending FlightAware ADS-B (ZBTJ / TSN)
08:17AM 39.8167 116.6373 North 217 250 4,900 -840 Descending FlightAware ADS-B (ZBTJ / TSN)
08:18AM 39.8305 116.6354 North 217 250 4,700 -1,080 Descending FlightAware ADS-B (ZBTJ / TSN)
08:18AM 39.8442 116.6331 354° North 206 237 4,400 -1,200 Descending FlightAware ADS-B (ZBTJ / TSN)
08:18AM 39.8593 116.6308 354° North 207 238 4,100 -1,200 Descending FlightAware ADS-B (ZBTJ / TSN)
08:18AM 39.8739 116.6285 354° North 207 238 3,800 -1,200 Descending FlightAware ADS-B (ZBTJ / TSN)
08:19AM 39.8878 116.6264 354° North 207 238 3,500 -1,200 Descending FlightAware ADS-B (ZBTJ / TSN)
08:19AM 39.9025 116.6241 354° North 203 234 3,200 -1,020 Descending FlightAware ADS-B (ZBTJ / TSN)
08:19AM 39.9160 116.6219 354° North 189 217 3,000 -840 Descending FlightAware ADS-B (ZBTJ / TSN)
08:19AM 39.9258 116.6204 354° North 181 208 2,800 -900 Descending FlightAware ADS-B (ZBTJ / TSN)
08:20AM 39.9449 116.6174 354° North 170 196 2,500 -900 Descending FlightAware ADS-B (ZBTJ / TSN)
08:20AM 39.9547 116.6159 354° North 157 181 2,300 -900 Descending FlightAware ADS-B (ZBTJ / TSN)
08:22AM 40.0801 116.5846 349° North  Level Estimated
08:23AM 40.0801 116.5846 North  Level Estimated
08:24AM 40.0801 116.5846 North  Level Estimated
08:25AM 40.0801 116.5846 North  Level Estimated
08:26AM 40.0801 116.5846 North  Level Estimated
08:27AM 40.0801 116.5846 North  Level Estimated
08:28AM 40.0801 116.5846 North  Level Estimated